Time;durP1;ratioP1;P1;durP2;ratioP2;P2;SDS_P1;SDS_P2;PMS_P1;PMS_P2;Temp;Humidity;BMP_temperature;BMP_pressure;BME280_temperature;BME280_humidity;BME280_pressure;Samples;Min_cycle;Max_cycle;Signal;HPM_P1;HPM_P2
2020/12/18 00:01:28;;;;;;;15.38;6.57;;;6.00;99.90;;;;;;5092675;28;20024;-69
2020/12/18 00:03:54;;;;;;;16.85;7.47;;;5.90;99.90;;;;;;5093856;28;20027;-69
2020/12/18 00:06:20;;;;;;;12.85;6.38;;;5.90;99.90;;;;;;5094134;28;20028;-69
2020/12/18 00:08:46;;;;;;;15.80;6.22;;;5.80;99.90;;;;;;5094109;28;20461;-69
2020/12/18 00:11:21;;;;;;;12.85;7.07;;;5.70;99.90;;;;;;5092884;28;20054;-69
2020/12/18 00:13:47;;;;;;;15.93;7.03;;;5.60;99.90;;;;;;5093994;28;20127;-69
2020/12/18 00:16:13;;;;;;;14.27;7.03;;;5.50;99.90;;;;;;5094025;28;20024;-69
2020/12/18 00:18:38;;;;;;;17.27;7.10;;;5.40;99.90;;;;;;5093691;28;20101;-69
2020/12/18 00:21:04;;;;;;;16.13;7.15;;;5.40;99.90;;;;;;5093704;28;20027;-69
2020/12/18 00:23:29;;;;;;;14.95;7.10;;;5.30;99.90;;;;;;5093681;28;20403;-69
2020/12/18 00:25:55;;;;;;;16.50;7.05;;;5.30;99.90;;;;;;5093932;28;20030;-69
2020/12/18 00:28:21;;;;;;;12.38;6.25;;;5.30;99.90;;;;;;5093913;28;20028;-69
2020/12/18 00:30:47;;;;;;;13.82;6.50;;;5.30;99.90;;;;;;5092460;28;20081;-69
2020/12/18 00:33:12;;;;;;;17.27;6.65;;;5.20;99.90;;;;;;5093793;28;20350;-69
2020/12/18 00:35:38;;;;;;;11.65;5.93;;;5.10;99.90;;;;;;5095850;28;20031;-69
2020/12/18 00:38:04;;;;;;;17.52;7.03;;;5.10;99.90;;;;;;5097784;28;20020;-69
2020/12/18 00:40:30;;;;;;;13.60;7.10;;;5.10;99.90;;;;;;5096263;28;20126;-69
2020/12/18 00:42:55;;;;;;;17.10;7.05;;;5.20;99.90;;;;;;5097705;28;20051;-69
2020/12/18 00:45:21;;;;;;;17.80;7.30;;;5.20;99.90;;;;;;5097379;28;20115;-69
2020/12/18 00:47:46;;;;;;;12.18;6.50;;;5.30;99.90;;;;;;5097304;28;20023;-69
2020/12/18 00:50:12;;;;;;;17.73;6.82;;;5.20;99.90;;;;;;5095744;28;20488;-69
2020/12/18 00:52:38;;;;;;;11.20;6.30;;;5.30;99.90;;;;;;5096968;28;20568;-69
2020/12/18 00:55:03;;;;;;;13.63;6.70;;;5.20;99.90;;;;;;5097432;28;20103;-69
2020/12/18 00:57:30;;;;;;;10.82;6.55;;;5.10;99.90;;;;;;5095648;28;20020;-69
2020/12/18 00:59:55;;;;;;;18.40;7.47;;;5.10;99.90;;;;;;5097372;28;20012;-69
2020/12/18 01:02:21;;;;;;;20.15;7.20;;;5.20;99.90;;;;;;5097308;28;20073;-69
2020/12/18 01:04:46;;;;;;;19.15;7.72;;;5.20;99.90;;;;;;5097247;28;20024;-69
2020/12/18 01:07:12;;;;;;;18.25;7.43;;;5.20;99.90;;;;;;5096929;28;20024;-69
2020/12/18 01:09:37;;;;;;;16.48;7.10;;;5.20;99.90;;;;;;5097179;28;20052;-69
2020/12/18 01:12:03;;;;;;;18.70;7.10;;;5.30;99.90;;;;;;5096560;28;20052;-69
2020/12/18 01:14:29;;;;;;;13.63;7.38;;;5.30;99.90;;;;;;5095218;28;20024;-69
2020/12/18 01:16:55;;;;;;;20.40;7.72;;;5.30;99.90;;;;;;5097042;28;20024;-69
2020/12/18 01:19:21;;;;;;;15.02;7.40;;;5.40;99.90;;;;;;5095799;28;20024;-69
2020/12/18 01:21:48;;;;;;;17.25;7.88;;;5.30;99.90;;;;;;5096913;28;20477;-69
2020/12/18 01:24:14;;;;;;;17.80;7.80;;;5.30;99.90;;;;;;5096598;28;20047;-69
2020/12/18 01:26:42;;;;;;;16.13;7.38;;;5.40;99.90;;;;;;5078200;28;20476;-69
2020/12/18 01:29:07;;;;;;;16.75;8.00;;;5.40;99.90;;;;;;5096810;28;20457;-69
2020/12/18 01:31:33;;;;;;;25.20;8.77;;;5.40;99.90;;;;;;5096458;28;20103;-69
2020/12/18 01:33:59;;;;;;;14.73;7.43;;;5.50;99.90;;;;;;5096652;28;20496;-69
2020/12/18 01:36:24;;;;;;;18.52;7.25;;;5.60;99.90;;;;;;5095480;28;20082;-69
2020/12/18 01:38:50;;;;;;;12.80;7.10;;;5.70;99.90;;;;;;5095421;28;20054;-69
2020/12/18 01:41:15;;;;;;;9.80;6.25;;;5.70;99.90;;;;;;5096016;28;20024;-69
2020/12/18 01:43:41;;;;;;;10.07;5.85;;;5.80;99.90;;;;;;5096489;28;20035;-69
2020/12/18 01:46:10;;;;;;;14.02;6.07;;;5.80;99.90;;;;;;5096129;28;20366;-69
2020/12/18 01:48:38;;;;;;;10.18;5.35;;;5.90;99.90;;;;;;5096433;28;20368;-69
2020/12/18 01:51:06;;;;;;;16.05;5.43;;;6.10;99.90;;;;;;5095225;28;20093;-69
2020/12/18 01:53:31;;;;;;;10.45;5.18;;;6.20;99.90;;;;;;5095636;28;20439;-70
2020/12/18 01:55:57;;;;;;;12.98;4.85;;;6.30;99.90;;;;;;5096538;28;20074;-69
2020/12/18 01:58:23;;;;;;;13.13;5.13;;;6.50;99.90;;;;;;5096481;28;20031;-69
2020/12/18 02:00:50;;;;;;;11.95;4.75;;;6.60;99.90;;;;;;5096429;28;20056;-70
2020/12/18 02:03:16;;;;;;;6.63;4.40;;;6.80;99.90;;;;;;5096328;28;20089;-69
2020/12/18 02:05:41;;;;;;;9.77;4.13;;;6.90;99.90;;;;;;5096076;28;20461;-69
2020/12/18 02:08:07;;;;;;;10.85;4.70;;;7.20;99.90;;;;;;5096068;28;20106;-69
2020/12/18 02:10:33;;;;;;;10.50;4.50;;;7.30;99.90;;;;;;5095677;28;20107;-69
2020/12/18 02:12:59;;;;;;;10.38;4.13;;;7.40;99.90;;;;;;5095574;28;20031;-70
2020/12/18 02:15:26;;;;;;;12.57;4.40;;;7.40;99.90;;;;;;5095903;28;20518;-69
2020/12/18 02:17:52;;;;;;;6.13;3.83;;;7.50;99.90;;;;;;5094084;28;20020;-69
2020/12/18 02:20:18;;;;;;;11.40;4.47;;;7.50;99.90;;;;;;5095801;28;20020;-69
2020/12/18 02:22:44;;;;;;;14.48;4.18;;;7.50;99.90;;;;;;5095762;28;20036;-70
2020/12/18 02:25:11;;;;;;;8.32;3.60;;;7.50;99.90;;;;;;5095704;28;20024;-70
2020/12/18 02:27:38;;;;;;;11.10;3.80;;;7.50;99.90;;;;;;5095426;28;20026;-70
2020/12/18 02:30:05;;;;;;;12.30;4.43;;;7.50;99.90;;;;;;5095593;28;20069;-69
2020/12/18 02:32:31;;;;;;;9.55;3.90;;;7.40;99.90;;;;;;5095473;28;20037;-69
2020/12/18 02:34:57;;;;;;;10.52;4.10;;;7.30;99.90;;;;;;5094964;28;20050;-70
2020/12/18 02:37:22;;;;;;;12.10;3.90;;;7.20;99.90;;;;;;5095193;28;20069;-69
2020/12/18 02:39:48;;;;;;;9.85;4.30;;;7.10;99.90;;;;;;5095430;28;20055;-69
2020/12/18 02:42:13;;;;;;;13.15;4.45;;;7.00;99.90;;;;;;5094834;28;20530;-69
2020/12/18 02:44:39;;;;;;;9.38;4.53;;;7.00;99.90;;;;;;5095313;28;20112;-69
2020/12/18 02:47:04;;;;;;;8.77;4.20;;;6.90;99.90;;;;;;5095028;28;20020;-69
2020/12/18 02:49:30;;;;;;;9.65;5.10;;;6.80;99.90;;;;;;5095233;28;20031;-70
2020/12/18 02:51:56;;;;;;;9.32;4.88;;;6.80;99.90;;;;;;5094938;28;20052;-69
2020/12/18 02:54:22;;;;;;;13.85;4.60;;;6.80;99.90;;;;;;5095039;28;20024;-69
2020/12/18 02:56:48;;;;;;;11.52;4.97;;;6.70;99.90;;;;;;5095061;28;20027;-69
2020/12/18 02:59:13;;;;;;;15.10;5.28;;;6.60;99.90;;;;;;5094377;28;20350;-69
2020/12/18 03:01:39;;;;;;;10.52;5.13;;;6.50;99.90;;;;;;5095017;28;20028;-69
2020/12/18 03:04:04;;;;;;;10.65;4.53;;;6.50;99.90;;;;;;5094960;28;20030;-69
2020/12/18 03:06:30;;;;;;;16.63;5.40;;;6.40;99.90;;;;;;5094915;28;20028;-70
2020/12/18 03:08:56;;;;;;;16.25;5.47;;;6.30;99.90;;;;;;5094872;28;20032;-69
2020/12/18 03:11:21;;;;;;;10.10;5.13;;;6.10;99.90;;;;;;5076222;28;20086;-70
2020/12/18 03:13:47;;;;;;;11.00;5.78;;;6.10;99.90;;;;;;5094701;28;20067;-69
2020/12/18 03:16:13;;;;;;;9.60;5.38;;;6.00;99.90;;;;;;5094757;28;20024;-69
2020/12/18 03:18:39;;;;;;;7.68;5.50;;;5.90;99.90;;;;;;5094240;28;20192;-70
2020/12/18 03:21:05;;;;;;;11.88;5.10;;;5.80;99.90;;;;;;5094734;28;20031;-69
2020/12/18 03:23:31;;;;;;;14.57;5.72;;;5.70;99.90;;;;;;5094643;28;20400;-70
2020/12/18 03:25:57;;;;;;;8.98;5.15;;;5.60;99.90;;;;;;5094640;28;20024;-69
2020/12/18 03:28:22;;;;;;;13.77;5.47;;;5.50;99.90;;;;;;5094579;28;20506;-69
2020/12/18 03:30:48;;;;;;;9.55;4.50;;;5.50;99.90;;;;;;5094266;28;20028;-69
2020/12/18 03:33:14;;;;;;;7.97;4.80;;;5.30;99.90;;;;;;5094449;28;20408;-69
2020/12/18 03:35:39;;;;;;;11.65;5.03;;;5.20;99.90;;;;;;5093324;28;20101;-69
2020/12/18 03:38:05;;;;;;;15.55;5.30;;;5.10;99.90;;;;;;5094446;28;20449;-69
2020/12/18 03:40:30;;;;;;;9.40;5.70;;;5.10;99.90;;;;;;5092939;28;20020;-69
2020/12/18 03:42:56;;;;;;;12.20;5.03;;;5.00;99.90;;;;;;5094388;28;20035;-69
2020/12/18 03:45:22;;;;;;;7.50;5.07;;;5.00;99.90;;;;;;5092565;28;20361;-69
2020/12/18 03:47:48;;;;;;;11.95;5.28;;;4.90;99.90;;;;;;5093768;28;20032;-70
2020/12/18 03:50:13;;;;;;;11.30;5.68;;;4.90;99.90;;;;;;5094290;28;20388;-69
2020/12/18 03:52:39;;;;;;;11.10;5.13;;;4.90;99.90;;;;;;5093700;28;20496;-69
2020/12/18 03:55:04;;;;;;;12.50;5.93;;;4.90;99.90;;;;;;5092419;28;20035;-69
2020/12/18 03:57:30;;;;;;;17.08;5.53;;;4.70;99.90;;;;;;5093947;28;20094;-69
2020/12/18 03:59:56;;;;;;;14.18;7.10;;;4.70;99.90;;;;;;5094206;28;20024;-69
2020/12/18 04:02:22;;;;;;;11.32;5.75;;;4.70;99.90;;;;;;5093884;28;20480;-69
2020/12/18 04:04:47;;;;;;;14.75;6.53;;;4.60;99.90;;;;;;5094153;28;20028;-69
2020/12/18 04:07:14;;;;;;;15.80;8.38;;;4.60;99.90;;;;;;5094097;28;20047;-69
2020/12/18 04:09:41;;;;;;;19.30;10.65;;;4.50;99.90;;;;;;5096304;28;20047;-69
2020/12/18 04:12:07;;;;;;;17.55;10.27;;;4.60;99.90;;;;;;5098304;28;20052;-69
2020/12/18 04:14:33;;;;;;;19.65;10.02;;;4.70;99.90;;;;;;5096327;28;20024;-69
2020/12/18 04:17:00;;;;;;;22.05;10.68;;;4.60;99.90;;;;;;5097935;28;20021;-69
2020/12/18 04:19:25;;;;;;;22.10;9.60;;;4.60;99.90;;;;;;5096351;28;20074;-69
2020/12/18 04:21:51;;;;;;;18.58;10.10;;;4.60;99.90;;;;;;5097107;28;20016;-69
2020/12/18 04:24:16;;;;;;;21.48;9.10;;;4.60;99.90;;;;;;5098050;28;20024;-69
2020/12/18 04:26:42;;;;;;;12.68;7.97;;;4.60;99.90;;;;;;5098008;28;20107;-69
2020/12/18 04:29:08;;;;;;;18.02;7.70;;;4.50;99.90;;;;;;5096107;28;20027;-69
2020/12/18 04:31:33;;;;;;;16.65;8.35;;;4.50;99.90;;;;;;5096939;28;20028;-69
2020/12/18 04:33:59;;;;;;;15.82;7.80;;;4.50;99.90;;;;;;5097551;28;20028;-69
2020/12/18 04:36:24;;;;;;;17.50;7.78;;;4.50;99.90;;;;;;5096360;28;20358;-69
2020/12/18 04:38:50;;;;;;;13.70;7.65;;;4.50;99.90;;;;;;5097483;28;20380;-69
2020/12/18 04:41:18;;;;;;;17.75;7.22;;;4.50;99.90;;;;;;5097459;28;20377;-69
2020/12/18 04:43:44;;;;;;;14.00;7.15;;;4.50;99.90;;;;;;5096498;28;20464;-69
2020/12/18 04:46:15;;;;;;;15.50;7.55;;;4.50;99.90;;;;;;5097656;28;20032;-70
2020/12/18 04:48:42;;;;;;;18.67;7.18;;;4.50;99.90;;;;;;5097007;28;20024;-70
2020/12/18 04:51:11;;;;;;;19.15;7.25;;;4.50;99.90;;;;;;5097511;28;20055;-68
2020/12/18 04:53:38;;;;;;;15.45;7.78;;;4.50;99.90;;;;;;5095568;28;20089;-69
2020/12/18 04:56:09;;;;;;;13.10;7.13;;;4.50;99.90;;;;;;5097431;28;20024;-69
2020/12/18 04:58:36;;;;;;;16.60;7.32;;;4.50;99.90;;;;;;5097379;28;20101;-69
2020/12/18 05:01:03;;;;;;;17.50;7.55;;;4.50;99.90;;;;;;5096778;28;20375;-69
2020/12/18 05:03:33;;;;;;;18.50;8.15;;;4.50;99.90;;;;;;5097323;28;20020;-69
2020/12/18 05:06:03;;;;;;;18.58;8.43;;;4.50;99.90;;;;;;5095840;28;20216;-69
2020/12/18 05:08:29;;;;;;;17.45;9.02;;;4.60;99.90;;;;;;5096980;28;20027;-69
2020/12/18 05:10:55;;;;;;;15.98;8.07;;;4.60;99.90;;;;;;5097209;28;20024;-69
2020/12/18 05:13:21;;;;;;;14.50;7.60;;;4.50;99.90;;;;;;5097102;28;20115;-70
2020/12/18 05:15:46;;;;;;;20.42;8.82;;;4.40;99.90;;;;;;5096556;28;20030;-69
2020/12/18 05:18:12;;;;;;;11.52;7.43;;;4.40;99.90;;;;;;5097077;28;20020;-69
2020/12/18 05:20:38;;;;;;;16.45;7.70;;;4.40;99.90;;;;;;5095988;28;20044;-69
2020/12/18 05:23:09;;;;;;;12.82;7.25;;;4.30;99.90;;;;;;5095655;28;20054;-69
2020/12/18 05:25:37;;;;;;;14.85;7.30;;;4.30;99.90;;;;;;5096796;28;20016;-69
2020/12/18 05:28:04;;;;;;;16.48;7.32;;;4.20;99.90;;;;;;5096236;28;20061;-69
2020/12/18 05:30:29;;;;;;;20.10;7.57;;;4.30;99.90;;;;;;5096770;28;20020;-69
2020/12/18 05:32:56;;;;;;;19.58;7.00;;;4.30;99.90;;;;;;5096120;28;20027;-69
2020/12/18 05:35:22;;;;;;;14.77;6.50;;;4.30;99.90;;;;;;5096177;28;20020;-69
2020/12/18 05:37:50;;;;;;;18.00;9.13;;;4.30;99.90;;;;;;5096681;28;20103;-69
2020/12/18 05:40:17;;;;;;;21.23;11.13;;;4.30;99.90;;;;;;5096609;28;20020;-69
2020/12/18 05:42:45;;;;;;;30.23;15.07;;;4.20;99.90;;;;;;5095126;28;20418;-69
2020/12/18 05:45:15;;;;;;;20.77;13.10;;;4.10;99.90;;;;;;5096520;28;20031;-69
2020/12/18 05:48:01;;;;;;;21.35;7.75;;;4.00;99.90;;;;;;5095030;28;20035;-69
2020/12/18 05:50:29;;;;;;;25.17;13.45;;;4.00;99.90;;;;;;5096118;28;20024;-69
2020/12/18 05:52:58;;;;;;;21.63;11.25;;;4.00;99.90;;;;;;5095824;28;20045;-69
2020/12/18 05:55:25;;;;;;;25.92;10.65;;;4.00;99.90;;;;;;5094895;28;20385;-70
2020/12/18 05:57:52;;;;;;;16.65;9.23;;;4.00;99.90;;;;;;5094851;28;20476;-69
2020/12/18 06:00:19;;;;;;;14.43;9.48;;;4.00;99.90;;;;;;5094800;28;20063;-69
2020/12/18 06:02:48;;;;;;;15.85;9.15;;;3.90;99.90;;;;;;5094769;28;20048;-69
2020/12/18 06:05:15;;;;;;;13.57;8.10;;;3.80;99.90;;;;;;5094701;28;20023;-69
2020/12/18 06:07:40;;;;;;;22.65;9.07;;;3.70;99.90;;;;;;5096057;28;20051;-69
2020/12/18 06:10:06;;;;;;;17.52;10.15;;;3.60;99.90;;;;;;5096038;28;20059;-69
2020/12/18 06:12:32;;;;;;;13.35;7.93;;;3.60;99.90;;;;;;5095613;28;20046;-69
2020/12/18 06:14:57;;;;;;;15.90;7.78;;;3.50;99.90;;;;;;5094436;28;20376;-69
2020/12/18 06:17:28;;;;;;;12.30;7.80;;;3.50;99.90;;;;;;5095895;28;20023;-69
2020/12/18 06:19:57;;;;;;;15.43;9.18;;;3.30;99.90;;;;;;5095777;28;20030;-69
2020/12/18 06:22:23;;;;;;;16.50;9.15;;;3.20;99.90;;;;;;5095753;28;20012;-69
2020/12/18 06:24:49;;;;;;;21.35;12.57;;;3.20;99.90;;;;;;5095490;28;20035;-69
2020/12/18 06:27:16;;;;;;;27.67;13.60;;;3.20;99.90;;;;;;5094491;28;20024;-69
2020/12/18 06:29:43;;;;;;;23.58;10.73;;;3.40;99.90;;;;;;5095317;28;20085;-69
2020/12/18 06:32:29;;;;;;;16.05;9.43;;;3.40;99.90;;;;;;5094828;28;20023;-68
2020/12/18 06:35:31;;;;;;;23.08;9.85;;;3.40;99.90;;;;;;5095469;28;20047;-69
2020/12/18 06:37:58;;;;;;;20.88;10.27;;;3.50;99.90;;;;;;5094987;28;20465;-69
2020/12/18 06:40:27;;;;;;;20.23;9.68;;;3.40;99.90;;;;;;5093639;28;20485;-68
2020/12/18 06:42:52;;;;;;;23.02;9.45;;;3.30;99.90;;;;;;5090865;28;20016;-68
2020/12/18 06:45:18;;;;;;;21.45;10.32;;;3.30;99.90;;;;;;5094209;28;20107;-67
2020/12/18 06:47:44;;;;;;;27.02;10.38;;;3.30;99.90;;;;;;5093977;28;20028;-67
2020/12/18 06:50:11;;;;;;;17.98;9.27;;;3.20;99.90;;;;;;5094613;28;20073;-67
2020/12/18 06:52:48;;;;;;;18.55;9.55;;;3.10;99.90;;;;;;5094021;28;20496;-67
2020/12/18 06:55:33;;;;;;;38.92;11.80;;;3.00;99.90;;;;;;5095095;28;20038;-68
2020/12/18 06:58:12;;;;;;;36.35;14.07;;;3.10;99.90;;;;;;5093845;28;20012;-66
2020/12/18 07:00:44;;;;;;;31.13;13.13;;;3.50;99.90;;;;;;5094205;28;20024;-67
2020/12/18 07:03:11;;;;;;;30.38;13.18;;;3.70;99.90;;;;;;5094912;28;20042;-66
2020/12/18 07:05:40;;;;;;;23.15;13.30;;;3.80;99.90;;;;;;5094636;28;20440;-66
2020/12/18 07:08:12;;;;;;;32.28;12.48;;;3.90;99.90;;;;;;5093789;28;20147;-66
2020/12/18 07:10:46;;;;;;;28.45;12.45;;;3.90;99.90;;;;;;5094527;28;20375;-67
2020/12/18 07:13:14;;;;;;;29.85;11.98;;;4.00;99.90;;;;;;5094664;28;20024;-67
2020/12/18 07:18:22;;;;;;;29.70;12.35;;;4.00;99.90;;;;;;5111714;27;20400;-64
2020/12/18 07:20:53;;;;;;;24.55;11.35;;;4.00;99.90;;;;;;5111041;28;20023;-65
2020/12/18 07:23:20;;;;;;;26.90;11.10;;;4.00;99.90;;;;;;5111566;28;20024;-65
2020/12/18 07:25:47;;;;;;;25.38;11.82;;;4.00;99.90;;;;;;5111194;28;20016;-64
2020/12/18 07:28:13;;;;;;;17.50;10.13;;;4.10;99.90;;;;;;5109918;28;20028;-64
2020/12/18 07:30:41;;;;;;;20.73;11.15;;;4.10;99.90;;;;;;5110995;28;20062;-64
2020/12/18 07:33:07;;;;;;;21.67;10.82;;;4.10;99.90;;;;;;5111575;28;20020;-65
2020/12/18 07:35:38;;;;;;;20.58;10.32;;;4.10;99.90;;;;;;5109265;28;20028;-65
2020/12/18 07:38:11;;;;;;;22.48;10.88;;;4.10;99.90;;;;;;5110483;28;20027;-66
2020/12/18 07:40:37;;;;;;;28.20;11.50;;;4.00;99.90;;;;;;5110707;28;20476;-65
2020/12/18 07:43:07;;;;;;;26.73;12.20;;;4.00;99.90;;;;;;5110097;28;20020;-64
2020/12/18 07:45:37;;;;;;;29.50;12.18;;;4.10;99.90;;;;;;5099337;28;20028;-64
2020/12/18 07:48:11;;;;;;;20.73;10.43;;;4.10;99.90;;;;;;5124244;28;20023;-64
2020/12/18 07:50:37;;;;;;;22.88;11.27;;;4.20;99.90;;;;;;5126631;27;20065;-64
2020/12/18 07:53:08;;;;;;;23.52;12.45;;;4.30;99.90;;;;;;5109380;28;20074;-65
2020/12/18 07:55:34;;;;;;;23.48;13.05;;;4.40;99.90;;;;;;5110594;28;20097;-65
2020/12/18 07:57:59;;;;;;;20.67;9.70;;;4.60;99.90;;;;;;5109923;28;20099;-64
2020/12/18 08:00:25;;;;;;;22.10;9.57;;;4.70;99.90;;;;;;5108824;28;20030;-65
2020/12/18 08:02:52;;;;;;;19.98;9.05;;;4.90;99.90;;;;;;5110087;28;20469;-66
2020/12/18 08:05:21;;;;;;;18.48;8.93;;;5.20;99.90;;;;;;5108125;28;20028;-67
2020/12/18 08:07:56;;;;;;;14.07;7.45;;;5.80;99.90;;;;;;5109527;28;20019;-65
2020/12/18 08:10:21;;;;;;;13.68;7.10;;;6.00;99.90;;;;;;5088486;28;20106;-65
2020/12/18 08:12:49;;;;;;;14.30;6.35;;;6.40;99.90;;;;;;5108574;28;20020;-65
2020/12/18 08:15:15;;;;;;;13.90;5.68;;;7.00;99.90;;;;;;5109691;28;20035;-64
2020/12/18 08:17:41;;;;;;;13.65;5.50;;;7.50;99.90;;;;;;5109147;28;20515;-65
2020/12/18 08:20:11;;;;;;;15.15;7.65;;;8.40;99.90;;;;;;5109623;28;20483;-66
2020/12/18 08:22:44;;;;;;;8.48;4.75;;;9.00;99.90;;;;;;5109487;28;20042;-66
2020/12/18 08:25:11;;;;;;;11.60;3.83;;;9.70;99.90;;;;;;5109537;28;20024;-66
2020/12/18 08:27:44;;;;;;;10.18;4.03;;;10.00;99.90;;;;;;5108419;28;20030;-66
2020/12/18 08:30:10;;;;;;;7.88;4.30;;;10.10;99.90;;;;;;5095798;28;20020;-66
2020/12/18 08:32:38;;;;;;;8.38;4.35;;;10.30;99.90;;;;;;5095615;28;20110;-66
2020/12/18 08:35:06;;;;;;;9.18;3.97;;;10.30;99.90;;;;;;5093243;28;20031;-66
2020/12/18 08:37:32;;;;;;;10.93;4.25;;;10.90;99.90;;;;;;5095183;28;20032;-66
2020/12/18 08:39:58;;;;;;;8.70;4.15;;;11.20;99.90;;;;;;5095037;28;20019;-66
2020/12/18 08:42:24;;;;;;;9.57;4.32;;;11.30;99.90;;;;;;5095333;28;20111;-66
2020/12/18 08:44:50;;;;;;;8.20;4.22;;;11.10;99.90;;;;;;5094836;28;20013;-65
2020/12/18 08:47:26;;;;;;;6.07;3.67;;;11.30;99.90;;;;;;5094171;28;20027;-66
2020/12/18 08:49:54;;;;;;;10.07;4.22;;;11.10;99.90;;;;;;5095235;28;20035;-66
2020/12/18 08:52:23;;;;;;;9.23;3.67;;;11.30;99.90;;;;;;5095536;28;20031;-65
2020/12/18 08:54:58;;;;;;;8.00;3.83;;;12.10;99.90;;;;;;5094946;28;20028;-65
2020/12/18 08:57:26;;;;;;;9.45;3.20;;;12.90;99.90;;;;;;5095420;28;20028;-66
2020/12/18 08:59:57;;;;;;;8.07;2.97;;;13.40;99.90;;;;;;5095316;28;20161;-67
2020/12/18 09:02:24;;;;;;;6.38;3.08;;;13.40;99.90;;;;;;5094245;28;20024;-67
2020/12/18 09:05:12;;;;;;;7.68;3.25;;;13.10;99.90;;;;;;5095660;28;20023;-67
2020/12/18 09:07:42;;;;;;;10.52;3.20;;;13.50;99.90;;;;;;5094491;28;20035;-66
2020/12/18 09:10:10;;;;;;;7.97;3.03;;;14.00;99.90;;;;;;5095013;28;20552;-66
2020/12/18 09:12:43;;;;;;;6.47;2.90;;;14.10;99.90;;;;;;5094198;28;20068;-66
2020/12/18 09:15:17;;;;;;;7.03;2.67;;;13.90;99.90;;;;;;5094354;28;20031;-66
2020/12/18 09:17:43;;;;;;;8.73;3.55;;;14.30;99.90;;;;;;5094088;28;20104;-65
2020/12/18 09:20:08;;;;;;;6.85;3.22;;;14.10;99.90;;;;;;5094530;28;20481;-67
2020/12/18 09:22:53;;;;;;;8.40;3.22;;;14.40;99.90;;;;;;5094293;28;20452;-68
2020/12/18 09:25:20;;;;;;;7.70;2.97;;;13.80;99.90;;;;;;5092666;28;20028;-67
2020/12/18 09:27:51;;;;;;;8.23;2.90;;;13.90;99.90;;;;;;5094331;28;20016;-67
2020/12/18 09:30:21;;;;;;;10.85;3.15;;;14.50;99.90;;;;;;5094465;28;20028;-67
2020/12/18 09:33:05;;;;;;;6.85;3.28;;;14.70;99.90;;;;;;5092633;28;20031;-67
2020/12/18 09:35:31;;;;;;;7.65;3.70;;;15.30;99.90;;;;;;5089921;28;20055;-67
2020/12/18 09:37:56;;;;;;;9.95;3.22;;;15.60;99.90;;;;;;5093983;28;20059;-67
2020/12/18 09:40:22;;;;;;;9.40;2.55;;;15.30;99.90;;;;;;5093378;28;20085;-67
2020/12/18 09:42:47;;;;;;;7.15;2.70;;;15.80;99.90;;;;;;5092882;28;20020;-66
2020/12/18 09:45:13;;;;;;;9.50;3.00;;;16.20;99.90;;;;;;5093153;28;20028;-66
2020/12/18 09:47:38;;;;;;;5.50;2.50;;;15.60;99.90;;;;;;5093638;28;20456;-65
2020/12/18 09:50:04;;;;;;;7.30;2.42;;;15.20;99.90;;;;;;5093543;28;20103;-65
2020/12/18 09:52:29;;;;;;;5.03;3.03;;;15.30;99.90;;;;;;5093822;28;20066;-66
2020/12/18 09:54:55;;;;;;;8.82;2.75;;;15.40;99.90;;;;;;5094535;28;20024;-67
2020/12/18 09:57:20;;;;;;;7.30;3.20;;;15.40;99.90;;;;;;5093538;28;20031;-67
2020/12/18 09:59:46;;;;;;;6.65;2.53;;;15.40;99.90;;;;;;5093611;28;20036;-66
2020/12/18 10:02:12;;;;;;;7.13;2.58;;;15.30;99.90;;;;;;5091254;28;20035;-67
2020/12/18 10:04:37;;;;;;;12.25;2.97;;;15.60;99.90;;;;;;5093930;28;20036;-68
2020/12/18 10:07:03;;;;;;;5.57;2.38;;;16.20;99.90;;;;;;5092646;28;20384;-66
2020/12/18 10:09:29;;;;;;;10.63;2.50;;;16.00;99.90;;;;;;5093260;28;20388;-66
2020/12/18 10:11:55;;;;;;;5.93;2.20;;;15.90;99.90;;;;;;5092977;28;20024;-67
2020/12/18 10:14:20;;;;;;;11.32;3.13;;;16.00;99.90;;;;;;5092879;28;20016;-68
2020/12/18 10:16:46;;;;;;;5.85;2.58;;;15.40;99.90;;;;;;5093091;28;20085;-67
2020/12/18 10:19:11;;;;;;;5.30;2.45;;;15.40;99.90;;;;;;5093834;28;20036;-66
2020/12/18 10:21:37;;;;;;;9.18;2.67;;;15.70;99.90;;;;;;5092968;28;20012;-66
2020/12/18 10:24:02;;;;;;;5.40;2.45;;;15.50;99.90;;;;;;5093865;28;20035;-66
2020/12/18 10:26:28;;;;;;;4.53;2.10;;;15.30;99.90;;;;;;5093020;28;20028;-67
2020/12/18 10:28:53;;;;;;;3.28;2.00;;;16.20;99.90;;;;;;5093543;28;20063;-67
2020/12/18 10:31:19;;;;;;;6.72;2.55;;;16.60;99.90;;;;;;5093206;28;20031;-67
2020/12/18 10:33:44;;;;;;;9.38;2.42;;;16.50;99.90;;;;;;5093162;28;20396;-67
2020/12/18 10:36:11;;;;;;;6.05;2.42;;;16.80;99.90;;;;;;5091454;28;20362;-67
2020/12/18 10:38:37;;;;;;;6.93;2.70;;;16.50;99.90;;;;;;5092622;28;20031;-66
2020/12/18 10:41:02;;;;;;;7.07;2.83;;;15.50;99.90;;;;;;5093762;28;20495;-66
2020/12/18 10:43:28;;;;;;;7.63;2.28;;;15.20;99.90;;;;;;5093094;28;20028;-66
2020/12/18 10:45:53;;;;;;;8.13;1.95;;;14.30;99.90;;;;;;5092799;28;20024;-67
2020/12/18 10:48:19;;;;;;;6.93;2.15;;;14.00;99.90;;;;;;5092757;28;20028;-66
2020/12/18 10:50:44;;;;;;;6.00;1.90;;;13.30;99.90;;;;;;5091447;28;20035;-66
2020/12/18 10:53:10;;;;;;;6.82;1.80;;;12.50;99.90;;;;;;5092460;28;20024;-66
2020/12/18 10:55:35;;;;;;;7.68;1.90;;;12.60;99.90;;;;;;5092969;28;20039;-67
2020/12/18 10:58:01;;;;;;;9.20;2.17;;;12.70;99.90;;;;;;5092204;28;20077;-68
2020/12/18 11:00:27;;;;;;;5.93;1.63;;;12.90;99.90;;;;;;5092522;28;20071;-67
2020/12/18 11:02:52;;;;;;;6.60;2.08;;;13.00;99.90;;;;;;5090742;28;20032;-66
2020/12/18 11:05:18;;;;;;;6.15;2.00;;;13.30;99.90;;;;;;5091512;28;20024;-67
2020/12/18 11:07:43;;;;;;;8.23;2.20;;;13.70;99.90;;;;;;5091514;28;20028;-68
2020/12/18 11:10:09;;;;;;;5.05;1.80;;;13.60;99.90;;;;;;5093273;28;20028;-67
2020/12/18 11:12:34;;;;;;;5.82;1.90;;;13.90;99.90;;;;;;5091759;28;20039;-68
2020/12/18 11:15:00;;;;;;;4.10;1.60;;;14.10;99.90;;;;;;5092092;28;20028;-68
2020/12/18 11:17:27;;;;;;;6.07;1.92;;;13.70;99.90;;;;;;5091738;28;20036;-69
2020/12/18 11:19:53;;;;;;;4.50;1.63;;;13.70;99.90;;;;;;5092707;28;20024;-68
2020/12/18 11:22:19;;;;;;;7.50;2.17;;;13.80;99.90;;;;;;5091508;28;20487;-68
2020/12/18 11:24:45;;;;;;;5.03;1.80;;;13.00;99.90;;;;;;5092941;28;20025;-69
2020/12/18 11:27:11;;;;;;;5.45;1.98;;;12.90;99.90;;;;;;5083285;28;20051;-69
2020/12/18 11:29:36;;;;;;;5.85;1.90;;;12.80;99.90;;;;;;5090825;28;20082;-68
2020/12/18 11:32:02;;;;;;;5.88;1.95;;;12.90;99.90;;;;;;5089912;28;20028;-69
2020/12/18 11:34:28;;;;;;;7.82;2.00;;;12.80;99.90;;;;;;5089527;28;20081;-67
2020/12/18 11:36:54;;;;;;;2.88;1.60;;;12.90;99.90;;;;;;5090113;28;20103;-67
2020/12/18 11:39:21;;;;;;;4.85;1.83;;;12.60;99.90;;;;;;5091800;28;20095;-68
2020/12/18 11:41:48;;;;;;;4.82;2.10;;;12.50;99.90;;;;;;5090766;28;20028;-68
2020/12/18 11:44:14;;;;;;;6.35;1.60;;;12.80;99.90;;;;;;5092315;28;20030;-68
2020/12/18 11:46:39;;;;;;;5.15;1.98;;;12.90;99.90;;;;;;5092602;28;20016;-68
2020/12/18 11:49:05;;;;;;;4.72;2.10;;;12.80;99.90;;;;;;5092049;28;20016;-68
2020/12/18 11:51:31;;;;;;;5.22;1.77;;;12.70;99.90;;;;;;5092028;28;20389;-68
2020/12/18 11:53:57;;;;;;;5.88;2.17;;;12.80;99.90;;;;;;5089533;28;20404;-68
2020/12/18 11:56:23;;;;;;;4.35;1.67;;;12.80;99.90;;;;;;5092801;28;20370;-68
2020/12/18 11:58:48;;;;;;;2.17;1.45;;;13.00;99.90;;;;;;5091533;28;20020;-68
2020/12/18 12:01:21;;;;;;;4.72;1.60;;;13.00;99.90;;;;;;5090982;28;20028;-68
2020/12/18 12:03:49;;;;;;;8.20;1.85;;;13.00;99.90;;;;;;5095150;28;20408;-68
2020/12/18 12:06:15;;;;;;;7.03;1.95;;;12.80;99.90;;;;;;5078186;28;20035;-68
2020/12/18 12:08:40;;;;;;;3.78;1.38;;;12.60;99.90;;;;;;5086973;28;20095;-68
2020/12/18 12:11:08;;;;;;;4.20;1.60;;;12.60;99.90;;;;;;5095281;28;20062;-68
2020/12/18 12:13:34;;;;;;;8.77;2.25;;;12.40;99.90;;;;;;5095956;28;20023;-68
2020/12/18 12:15:59;;;;;;;5.47;1.80;;;12.60;99.90;;;;;;5092583;28;20032;-68
2020/12/18 12:18:25;;;;;;;4.32;1.88;;;12.50;99.90;;;;;;5095084;28;20030;-68
2020/12/18 12:20:51;;;;;;;6.85;1.70;;;12.60;99.90;;;;;;5094367;28;20016;-68
2020/12/18 12:23:16;;;;;;;6.63;1.45;;;12.70;99.90;;;;;;5095391;28;20020;-68
2020/12/18 12:25:42;;;;;;;3.05;1.55;;;12.50;99.90;;;;;;5093567;28;20044;-69
2020/12/18 12:28:07;;;;;;;5.72;1.67;;;12.60;99.90;;;;;;5095463;28;20056;-69
2020/12/18 12:30:33;;;;;;;6.72;1.73;;;12.70;99.90;;;;;;5090941;28;20051;-68
2020/12/18 12:32:58;;;;;;;4.97;1.55;;;12.60;99.90;;;;;;5093238;28;20020;-68
2020/12/18 12:35:25;;;;;;;4.88;1.60;;;12.50;99.90;;;;;;5088325;28;20032;-69
2020/12/18 12:37:51;;;;;;;7.57;1.65;;;12.40;99.90;;;;;;5095860;28;20388;-69
2020/12/18 12:40:17;;;;;;;6.25;1.80;;;12.40;99.90;;;;;;5094616;28;20020;-68
2020/12/18 12:42:43;;;;;;;4.95;1.38;;;12.40;99.90;;;;;;5095543;28;20032;-68
2020/12/18 12:45:08;;;;;;;3.42;1.33;;;12.40;99.90;;;;;;5096366;28;20020;-68
2020/12/18 12:47:34;;;;;;;4.50;1.77;;;12.40;99.90;;;;;;5095671;28;20024;-67